Time;durP1;ratioP1;P1;durP2;ratioP2;P2;SDS_P1;SDS_P2;PMS_P1;PMS_P2;Temp;Humidity;BMP_temperature;BMP_pressure;BME280_temperature;BME280_humidity;BME280_pressure;Samples;Min_cycle;Max_cycle;Signal;HPM_P1;HPM_P2
2022/07/26 00:00:40;;;;;;;3.55;2.70;;;;;;;22.13;67.75;97520.67;1663835;84;28179;-85
2022/07/26 00:03:29;;;;;;;4.33;3.33;;;;;;;22.14;67.56;97518.31;1664721;84;28080;-87
2022/07/26 00:05:57;;;;;;;3.55;2.80;;;;;;;22.16;67.29;97514.92;1664231;84;28086;-86
2022/07/26 00:08:29;;;;;;;7.12;3.20;;;;;;;22.19;67.15;97518.53;1664293;84;28097;-86
2022/07/26 00:10:56;;;;;;;3.62;2.87;;;;;;;22.21;66.92;97517.28;1665195;84;28120;-86
2022/07/26 00:13:22;;;;;;;5.30;3.17;;;;;;;22.21;66.74;97522.61;1664028;84;28044;-88
2022/07/26 00:15:49;;;;;;;3.47;3.08;;;;;;;22.24;66.50;97513.41;1662643;84;28063;-90
2022/07/26 00:18:16;;;;;;;5.87;2.95;;;;;;;22.28;66.26;97515.97;1666079;85;28101;-85
2022/07/26 00:20:43;;;;;;;4.35;3.05;;;;;;;22.29;66.08;97510.44;1664107;85;28081;-86
2022/07/26 00:23:09;;;;;;;4.62;3.37;;;;;;;22.32;65.87;97509.20;1659120;84;28080;-85
2022/07/26 00:25:36;;;;;;;4.53;3.15;;;;;;;22.41;65.64;97504.00;1659825;85;28100;-86
2022/07/26 00:28:04;;;;;;;6.40;3.55;;;;;;;22.46;65.48;97506.87;1666578;84;28077;-90
2022/07/26 00:30:36;;;;;;;3.12;2.80;;;;;;;22.46;65.29;97504.20;1660479;84;28066;-90
2022/07/26 00:33:02;;;;;;;7.08;3.30;;;;;;;22.50;65.13;97500.09;1664537;84;28101;-90
2022/07/26 00:35:31;;;;;;;3.70;3.30;;;;;;;22.55;64.86;97497.62;1657982;84;28081;-90
2022/07/26 00:37:58;;;;;;;3.58;3.27;;;;;;;22.59;64.67;97498.84;1660275;84;28210;-90
2022/07/26 00:40:24;;;;;;;5.90;3.25;;;;;;;22.60;64.42;97495.67;1659070;84;28186;-89
2022/07/26 00:42:58;;;;;;;3.17;2.87;;;;;;;22.65;64.23;97498.03;1662527;84;28101;-88
2022/07/26 00:45:24;;;;;;;3.35;3.00;;;;;;;22.69;64.04;97489.95;1658887;84;28085;-90
2022/07/26 00:47:50;;;;;;;4.28;3.40;;;;;;;22.72;63.83;97484.73;1658811;84;28135;-86
2022/07/26 00:50:19;;;;;;;4.28;3.70;;;;;;;22.71;63.71;97481.23;1667898;83;28120;-85
2022/07/26 00:52:48;;;;;;;4.78;3.12;;;;;;;22.70;63.55;97482.73;1663272;84;28025;-86
2022/07/26 00:55:16;;;;;;;4.10;3.40;;;;;;;22.74;63.49;97471.50;1662515;84;28579;-90
2022/07/26 00:57:43;;;;;;;5.33;3.30;;;;;;;22.77;63.31;97474.25;1661379;84;28062;-90
2022/07/26 01:00:13;;;;;;;4.70;3.08;;;;;;;22.74;63.18;97478.17;1665619;84;28171;-90
2022/07/26 01:02:42;;;;;;;4.60;3.30;;;;;;;22.71;63.04;97475.90;1659641;83;28078;-88
2022/07/26 01:05:09;;;;;;;3.75;3.30;;;;;;;22.71;62.86;97469.23;1660747;84;28075;-88
2022/07/26 01:07:49;;;;;;;3.58;3.17;;;;;;;22.76;62.79;97468.61;1666868;83;28082;-85
2022/07/26 01:10:15;;;;;;;4.20;3.35;;;;;;;22.79;62.76;97461.03;1608709;86;28075;-90
2022/07/26 01:12:42;;;;;;;4.92;3.05;;;;;;;22.81;62.61;97460.28;1657042;85;28115;-86
2022/07/26 01:15:14;;;;;;;8.88;3.65;;;;;;;22.85;62.47;97462.05;1629362;87;28090;-85
2022/07/26 01:17:46;;;;;;;5.78;3.25;;;;;;;22.82;62.41;97453.11;1666304;83;28079;-88
2022/07/26 01:20:18;;;;;;;6.47;3.35;;;;;;;22.81;62.28;97448.79;1666344;84;28104;-85
2022/07/26 01:22:44;;;;;;;3.35;3.05;;;;;;;22.79;62.13;97454.36;1631026;85;28094;-90
2022/07/26 01:25:11;;;;;;;4.47;3.20;;;;;;;22.78;62.08;97446.55;1637882;86;28088;-86
2022/07/26 01:27:40;;;;;;;3.90;3.45;;;;;;;22.83;62.01;97448.91;1646723;85;28193;-86
2022/07/26 01:30:10;;;;;;;3.45;3.15;;;;;;;22.90;62.06;97440.37;1661424;84;28092;-88
2022/07/26 01:32:39;;;;;;;4.72;3.40;;;;;;;22.92;62.05;97442.30;1666018;84;28093;-88
2022/07/26 01:35:06;;;;;;;4.12;3.37;;;;;;;22.93;62.00;97435.95;1662291;84;28616;-88
2022/07/26 01:37:32;;;;;;;5.15;3.08;;;;;;;22.89;61.98;97434.73;1665018;84;28091;-87
2022/07/26 01:39:58;;;;;;;3.92;3.20;;;;;;;22.93;61.81;97440.45;1664099;84;28104;-88
2022/07/26 01:42:26;;;;;;;4.72;3.27;;;;;;;23.03;61.56;97436.02;1662199;84;28156;-90
2022/07/26 01:44:52;;;;;;;5.47;3.37;;;;;;;23.08;61.48;97438.36;1663106;84;28003;-90
2022/07/26 01:47:20;;;;;;;3.67;3.30;;;;;;;23.09;61.38;97429.83;1666539;84;28107;-85
2022/07/26 01:49:50;;;;;;;4.75;3.35;;;;;;;23.11;61.16;97427.78;1667046;83;28068;-88
2022/07/26 01:52:29;;;;;;;4.20;3.10;;;;;;;23.18;60.94;97434.75;1687145;83;28148;-85
2022/07/26 01:54:55;;;;;;;6.65;3.02;;;;;;;23.20;60.74;97429.18;1681210;84;28142;-85
2022/07/26 01:57:27;;;;;;;3.95;3.35;;;;;;;23.22;60.50;97432.47;1680248;83;28231;-85
2022/07/26 02:00:03;;;;;;;3.25;2.85;;;;;;;23.23;60.35;97431.45;1683356;83;28047;-90
2022/07/26 02:02:30;;;;;;;4.42;3.45;;;;;;;23.24;60.19;97427.72;1684935;83;28087;-88
2022/07/26 02:04:59;;;;;;;4.90;2.98;;;;;;;23.22;60.04;97420.45;1679035;83;28143;-90
2022/07/26 02:07:43;;;;;;;5.30;3.35;;;;;;;23.24;59.84;97417.05;1679534;83;28157;-90
2022/07/26 02:10:08;;;;;;;3.45;2.80;;;;;;;23.29;59.69;97411.91;1679246;83;28113;-88
2022/07/26 02:12:34;;;;;;;5.65;3.25;;;;;;;23.35;59.52;97409.70;1675283;83;28097;-86
2022/07/26 02:15:05;;;;;;;3.37;2.65;;;;;;;23.37;59.32;97402.31;1682026;83;28019;-86
2022/07/26 02:17:31;;;;;;;5.72;3.27;;;;;;;23.42;59.08;97403.00;1680475;83;28089;-86
2022/07/26 02:19:58;;;;;;;4.33;3.30;;;;;;;23.44;58.94;97397.77;1676977;83;28113;-86
2022/07/26 02:22:25;;;;;;;3.47;2.90;;;;;;;23.45;58.76;97398.08;1680017;83;28132;-85
2022/07/26 02:24:53;;;;;;;5.45;3.25;;;;;;;23.46;58.57;97397.05;1674379;83;28003;-86
2022/07/26 02:27:19;;;;;;;4.15;3.40;;;;;;;23.49;58.40;97393.14;1675790;83;28100;-85
2022/07/26 02:29:48;;;;;;;4.45;3.35;;;;;;;23.50;58.21;97392.94;1680766;83;28109;-85
2022/07/26 02:32:21;;;;;;;4.08;3.00;;;;;;;23.53;58.06;97397.84;1677514;83;28012;-86
2022/07/26 02:34:45;;;;;;;4.85;3.42;;;;;;;23.55;57.87;97394.96;1676252;83;28167;-85
2022/07/26 02:37:18;;;;;;;3.37;2.92;;;;;;;23.55;57.75;97395.78;1674738;83;28086;-85
2022/07/26 02:39:44;;;;;;;4.78;3.20;;;;;;;23.56;57.66;97390.75;1681650;83;28054;-88
2022/07/26 02:42:11;;;;;;;3.72;3.02;;;;;;;23.54;57.56;97391.98;1679057;83;27989;-86
2022/07/26 02:44:40;;;;;;;4.15;3.42;;;;;;;23.57;57.42;97392.36;1681312;83;28082;-85
2022/07/26 02:47:06;;;;;;;4.17;3.33;;;;;;;23.56;57.34;97388.08;1682764;83;28140;-90
2022/07/26 02:49:32;;;;;;;3.62;3.30;;;;;;;23.57;57.26;97392.88;1682377;83;28092;-86
2022/07/26 02:52:05;;;;;;;3.62;3.20;;;;;;;23.60;57.22;97387.12;1688240;83;28120;-90
2022/07/26 02:54:36;;;;;;;4.22;3.37;;;;;;;23.62;57.13;97389.07;1658491;84;28131;-88
2022/07/26 02:57:08;;;;;;;4.00;3.15;;;;;;;23.63;57.05;97384.83;1659335;84;28042;-86
2022/07/26 02:59:36;;;;;;;3.50;3.20;;;;;;;23.65;56.95;97384.11;1689224;83;28718;-85
2022/07/26 03:02:02;;;;;;;4.58;3.22;;;;;;;23.69;56.91;97396.50;1688446;83;28156;-90
2022/07/26 03:04:32;;;;;;;4.53;3.10;;;;;;;23.67;56.88;97393.25;1658821;84;28791;-90
2022/07/26 03:06:58;;;;;;;4.62;3.17;;;;;;;23.64;56.82;97395.00;1689295;83;28123;-86
2022/07/26 03:09:24;;;;;;;3.95;3.20;;;;;;;23.67;56.83;97389.24;1688301;82;28126;-88
2022/07/26 03:11:50;;;;;;;4.45;3.37;;;;;;;23.67;56.84;97388.73;1661022;83;28091;-90
2022/07/26 03:14:18;;;;;;;4.10;3.40;;;;;;;23.71;56.87;97382.42;1659134;84;28166;-90
2022/07/26 03:16:45;;;;;;;5.55;3.45;;;;;;;23.71;56.83;97379.24;1688635;83;28050;-86
2022/07/26 03:19:11;;;;;;;3.17;2.80;;;;;;;23.71;56.83;97380.58;1658961;85;28098;-85
2022/07/26 03:21:39;;;;;;;4.85;3.08;;;;;;;23.74;56.87;97379.31;1659467;84;28132;-90
2022/07/26 03:24:13;;;;;;;3.70;3.20;;;;;;;23.74;56.85;97373.45;1688939;82;28168;-88
2022/07/26 03:26:39;;;;;;;4.33;3.27;;;;;;;23.78;56.90;97373.31;1689330;82;28107;-86
2022/07/26 03:29:05;;;;;;;3.98;3.27;;;;;;;23.77;56.88;97362.86;1688710;83;28062;-90
2022/07/26 03:31:31;;;;;;;4.33;3.77;;;;;;;23.82;56.87;97369.71;1659017;84;28197;-88
2022/07/26 03:33:57;;;;;;;4.28;3.30;;;;;;;23.87;56.88;97368.54;1686849;83;28122;-90
2022/07/26 03:36:26;;;;;;;5.47;3.35;;;;;;;23.91;56.89;97372.41;1659013;84;28104;-90
2022/07/26 03:38:52;;;;;;;5.55;3.33;;;;;;;23.95;56.87;97366.92;1689105;82;28136;-86
2022/07/26 03:41:18;;;;;;;4.70;3.60;;;;;;;23.97;56.80;97364.86;1688259;83;28083;-86
2022/07/26 03:43:54;;;;;;;3.95;3.33;;;;;;;24.03;56.85;97360.50;1658026;84;28103;-85
2022/07/26 03:46:20;;;;;;;3.67;3.15;;;;;;;24.06;56.87;97360.87;1688720;83;28116;-86
2022/07/26 03:48:46;;;;;;;6.95;3.27;;;;;;;24.06;56.89;97356.86;1689521;83;28087;-90
2022/07/26 03:51:17;;;;;;;3.62;3.15;;;;;;;24.08;56.95;97359.33;1665496;83;28073;-90
2022/07/26 03:53:43;;;;;;;4.60;3.52;;;;;;;24.10;57.03;97358.08;1636768;85;28040;-86
2022/07/26 03:56:27;;;;;;;4.17;3.67;;;;;;;24.11;57.09;97365.04;1637403;85;28102;-86
2022/07/26 03:58:55;;;;;;;6.50;3.62;;;;;;;24.12;57.13;97359.17;1671139;84;28477;-85
2022/07/26 04:01:27;;;;;;;4.75;3.22;;;;;;;24.18;57.17;97356.48;1637603;85;28016;-88
2022/07/26 04:03:53;;;;;;;4.80;3.55;;;;;;;24.23;57.22;97361.17;1665427;83;28015;-86
2022/07/26 04:06:26;;;;;;;4.10;3.05;;;;;;;24.26;57.25;97360.75;1665581;84;28196;-85
2022/07/26 04:08:54;;;;;;;6.70;3.40;;;;;;;24.30;57.38;97357.10;1668943;84;28174;-85
2022/07/26 04:11:20;;;;;;;3.47;3.17;;;;;;;24.34;57.55;97361.79;1670845;84;28043;-90
2022/07/26 04:13:46;;;;;;;3.98;3.42;;;;;;;24.38;57.57;97360.84;1669750;83;28225;-85
2022/07/26 04:16:22;;;;;;;4.62;3.40;;;;;;;24.47;57.70;97368.36;1666459;83;28086;-90
2022/07/26 04:19:02;;;;;;;3.77;3.47;;;;;;;24.63;57.88;97359.45;1664448;83;28087;-90
2022/07/26 04:21:32;;;;;;;4.03;3.40;;;;;;;24.78;57.93;97362.05;1664155;83;28083;-90
2022/07/26 04:24:05;;;;;;;4.85;3.77;;;;;;;24.93;57.94;97355.01;1629781;85;28100;-85
2022/07/26 04:26:32;;;;;;;4.60;3.37;;;;;;;25.02;58.01;97360.89;1641190;85;28176;-85
2022/07/26 04:28:58;;;;;;;4.85;3.47;;;;;;;25.10;58.04;97361.39;1633218;84;28084;-86
2022/07/26 04:31:24;;;;;;;4.20;3.25;;;;;;;25.15;57.94;97368.77;1670072;83;28190;-90
2022/07/26 04:33:51;;;;;;;6.20;3.72;;;;;;;25.17;57.91;97375.52;1665479;84;28075;-86
2022/07/26 04:36:17;;;;;;;4.37;3.35;;;;;;;25.22;57.88;97387.72;1639966;84;28117;-86
2022/07/26 04:38:43;;;;;;;4.37;3.85;;;;;;;25.24;57.83;97411.08;1641043;85;28106;-85
2022/07/26 04:41:10;;;;;;;3.83;3.52;;;;;;;25.25;57.83;97410.05;1639302;84;28185;-86
2022/07/26 04:43:36;;;;;;;4.53;3.58;;;;;;;25.27;57.90;97414.64;1634345;85;28088;-88
2022/07/26 04:46:02;;;;;;;4.20;3.80;;;;;;;25.26;57.91;97423.71;1635440;85;28107;-90
2022/07/26 04:48:28;;;;;;;4.22;3.72;;;;;;;25.25;57.97;97425.30;1664844;84;28058;-86
2022/07/26 04:51:01;;;;;;;4.28;3.87;;;;;;;25.24;58.26;97428.49;1665817;83;28242;-88
2022/07/26 04:53:28;;;;;;;7.03;4.12;;;;;;;25.21;58.24;97439.63;1659930;84;28097;-88
2022/07/26 04:55:54;;;;;;;5.37;4.25;;;;;;;25.17;58.21;97445.15;1664484;84;28109;-85
2022/07/26 04:58:23;;;;;;;6.47;4.15;;;;;;;25.13;58.27;97443.97;1662436;84;28075;-90
2022/07/26 05:00:49;;;;;;;7.22;4.10;;;;;;;25.09;58.38;97448.14;1662432;84;28079;-90
2022/07/26 05:03:20;;;;;;;6.60;4.35;;;;;;;25.05;58.65;97442.91;1658810;84;28025;-86
2022/07/26 05:05:46;;;;;;;9.20;4.15;;;;;;;25.06;59.04;97444.55;1677262;84;28106;-86
2022/07/26 05:08:15;;;;;;;5.55;4.45;;;;;;;25.05;59.49;97448.27;1665861;84;28107;-86
2022/07/26 05:10:41;;;;;;;8.68;4.15;;;;;;;25.05;59.99;97448.27;1659257;85;28122;-86
2022/07/26 05:13:08;;;;;;;8.25;3.98;;;;;;;25.11;60.34;97458.61;1631602;86;28149;-88
2022/07/26 05:15:42;;;;;;;4.75;4.08;;;;;;;25.15;60.72;97467.30;1668261;84;28107;-85
2022/07/26 05:18:09;;;;;;;5.08;4.33;;;;;;;25.19;61.02;97476.55;1662576;85;28104;-87
2022/07/26 05:20:36;;;;;;;5.00;4.12;;;;;;;25.24;61.29;97503.48;1628462;85;28049;-87
2022/07/26 05:23:12;;;;;;;4.95;4.30;;;;;;;25.29;61.55;97533.09;1647879;85;28071;-85
2022/07/26 05:25:38;;;;;;;6.37;4.17;;;;;;;25.32;61.75;97547.89;1661310;85;28146;-85
2022/07/26 05:28:04;;;;;;;9.10;4.35;;;;;;;25.32;61.92;97556.75;1657390;85;28135;-85
2022/07/26 05:30:31;;;;;;;8.70;4.50;;;;;;;25.33;62.14;97563.75;1661862;85;28034;-90
2022/07/26 05:32:58;;;;;;;5.55;4.28;;;;;;;25.32;62.37;97566.12;1662286;84;28087;-85
2022/07/26 05:35:29;;;;;;;6.80;4.53;;;;;;;25.32;62.61;97579.52;1668399;84;28057;-87
2022/07/26 05:37:55;;;;;;;6.85;4.42;;;;;;;25.26;62.61;97589.77;1661666;85;28204;-90
2022/07/26 05:40:22;;;;;;;10.53;5.12;;;;;;;25.16;62.67;97585.95;1644923;84;39012;-90
2022/07/26 05:42:49;;;;;;;6.17;4.62;;;;;;;25.14;62.84;97600.11;1665617;84;28160;-85
2022/07/26 05:45:16;;;;;;;10.53;5.10;;;;;;;25.11;63.07;97611.23;1642701;85;28099;-85
2022/07/26 05:47:42;;;;;;;10.32;4.78;;;;;;;25.03;63.32;97606.17;1675112;83;28073;-85
2022/07/26 05:50:09;;;;;;;9.10;4.92;;;;;;;25.03;63.82;97616.88;1675512;83;28077;-85
2022/07/26 05:52:35;;;;;;;9.20;5.03;;;;;;;25.01;64.47;97627.80;1664890;83;28091;-91
2022/07/26 05:55:14;;;;;;;7.70;4.53;;;;;;;25.04;65.16;97640.74;1667580;83;28209;-90
2022/07/26 05:57:40;;;;;;;13.10;5.62;;;;;;;25.05;65.87;97648.25;1663678;84;28142;-86
2022/07/26 06:00:10;;;;;;;7.83;5.47;;;;;;;25.00;66.40;97646.23;1658901;84;28187;-85
2022/07/26 06:02:46;;;;;;;11.48;5.58;;;;;;;24.97;66.99;97654.72;1659904;84;28109;-91
2022/07/26 06:05:14;;;;;;;8.65;5.50;;;;;;;25.02;67.86;97651.38;1660517;84;28243;-90
2022/07/26 06:07:40;;;;;;;6.65;5.08;;;;;;;25.04;68.93;97663.50;1671106;84;28148;-90
2022/07/26 06:10:06;;;;;;;8.45;5.33;;;;;;;24.96;69.48;97670.47;1669297;84;28120;-88
2022/07/26 06:12:35;;;;;;;9.98;6.22;;;;;;;24.86;70.05;97671.44;1646258;84;28103;-90
2022/07/26 06:15:04;;;;;;;7.75;5.90;;;;;;;24.84;70.95;97684.21;1663768;85;28181;-90
2022/07/26 06:17:30;;;;;;;8.10;6.17;;;;;;;24.81;71.79;97690.01;1658659;84;28082;-90
2022/07/26 06:19:59;;;;;;;8.15;6.85;;;;;;;24.73;72.44;97691.59;1698748;82;28213;-85
2022/07/26 06:22:25;;;;;;;7.35;6.30;;;;;;;24.71;73.55;97707.06;1665416;84;28491;-90
2022/07/26 06:24:51;;;;;;;10.00;7.25;;;;;;;24.73;74.32;97713.00;1655913;84;28148;-90
2022/07/26 06:27:17;;;;;;;10.53;6.92;;;;;;;24.80;75.24;97718.62;1661433;85;28063;-91
2022/07/26 06:29:47;;;;;;;10.15;7.05;;;;;;;24.83;76.32;97720.04;1659692;84;28490;-88
2022/07/26 06:32:15;;;;;;;10.93;6.90;;;;;;;24.76;77.05;97740.69;1656300;84;28078;-88
2022/07/26 06:34:41;;;;;;;12.55;7.72;;;;;;;24.60;77.69;97752.70;1638592;85;28108;-88
2022/07/26 06:37:11;;;;;;;10.10;7.05;;;;;;;24.46;78.42;97746.57;1667620;84;28031;-85
2022/07/26 06:39:38;;;;;;;8.20;6.55;;;;;;;24.34;79.38;97753.60;1644894;84;28084;-90
2022/07/26 06:42:07;;;;;;;8.35;6.53;;;;;;;24.23;80.10;97750.23;1665689;84;28172;-85
2022/07/26 06:44:33;;;;;;;14.13;6.75;;;;;;;24.19;80.77;97754.38;1668058;84;28181;-90
2022/07/26 06:46:59;;;;;;;7.92;6.62;;;;;;;24.17;81.68;97749.70;1664053;84;28097;-90
2022/07/26 06:49:25;;;;;;;8.93;6.62;;;;;;;24.13;82.34;97751.98;1660166;84;28171;-90
2022/07/26 06:51:52;;;;;;;11.63;7.00;;;;;;;24.04;83.05;97746.57;1669083;84;28141;-90
2022/07/26 06:54:22;;;;;;;9.55;7.58;;;;;;;24.02;83.71;97751.30;1677173;83;28075;-88
2022/07/26 06:56:48;;;;;;;11.33;7.28;;;;;;;24.06;84.53;97759.20;1691707;84;28079;-88
2022/07/26 06:59:14;;;;;;;7.97;6.30;;;;;;;24.14;85.20;97763.00;1686089;84;28157;-90
2022/07/26 07:01:40;;;;;;;9.13;6.62;;;;;;;24.23;85.93;97770.30;1683277;83;28107;-91
2022/07/26 07:04:06;;;;;;;11.38;6.95;;;;;;;24.29;86.38;97771.31;1679306;83;28171;-86
2022/07/26 07:06:32;;;;;;;9.13;6.95;;;;;;;24.28;86.58;97783.86;1666333;85;28176;-88
2022/07/26 07:08:59;;;;;;;12.20;7.37;;;;;;;24.29;86.99;97787.36;1668206;84;28109;-88
2022/07/26 07:11:25;;;;;;;8.15;6.83;;;;;;;24.27;87.29;97788.10;1663418;85;28062;-88
2022/07/26 07:13:52;;;;;;;10.18;6.90;;;;;;;24.30;87.78;97789.83;1663956;85;28078;-89
2022/07/26 07:16:18;;;;;;;10.75;7.12;;;;;;;24.16;88.09;97802.91;1669232;85;28108;-86
2022/07/26 07:18:44;;;;;;;9.08;6.55;;;;;;;23.95;88.05;97799.10;1663102;85;28042;-86
2022/07/26 07:21:14;;;;;;;8.65;7.35;;;;;;;23.88;88.51;97803.14;1667026;85;28074;-90
2022/07/26 07:23:40;;;;;;;8.23;6.97;;;;;;;23.73;88.97;97806.52;1664469;84;28160;-85
2022/07/26 07:26:06;;;;;;;9.18;6.62;;;;;;;23.60;89.26;97806.02;1667942;85;28023;-86
2022/07/26 07:28:37;;;;;;;9.85;7.15;;;;;;;23.56;89.88;97804.79;1663332;85;28016;-85
2022/07/26 07:31:04;;;;;;;9.40;7.30;;;;;;;23.49;90.62;97791.11;1682813;82;28079;-85
2022/07/26 07:33:30;;;;;;;10.20;7.67;;;;;;;23.40;91.08;97794.98;1673820;84;28104;-86
2022/07/26 07:35:57;;;;;;;11.05;7.08;;;;;;;23.30;91.73;97786.01;1671581;85;28242;-86
2022/07/26 07:38:27;;;;;;;9.73;7.22;;;;;;;23.27;92.53;97786.42;1664648;84;28093;-88
2022/07/26 07:40:53;;;;;;;9.40;7.42;;;;;;;23.20;93.18;97792.26;1662594;84;28037;-88
2022/07/26 07:43:20;;;;;;;8.45;7.45;;;;;;;23.05;93.62;97793.77;1664603;84;28089;-85
2022/07/26 07:45:46;;;;;;;8.25;6.70;;;;;;;22.99;94.71;97789.75;1659148;84;28155;-87
2022/07/26 07:48:16;;;;;;;9.30;6.78;;;;;;;22.93;95.27;97785.53;1663443;85;28409;-86
2022/07/26 07:50:49;;;;;;;12.00;8.23;;;;;;;22.91;95.89;97790.77;1658783;84;28094;-90
2022/07/26 07:53:21;;;;;;;9.45;7.00;;;;;;;22.89;96.67;97789.63;1677778;83;28007;-90
2022/07/26 07:55:54;;;;;;;8.28;6.65;;;;;;;22.92;97.48;97784.38;1681983;85;28108;-90
2022/07/26 07:58:23;;;;;;;7.20;6.17;;;;;;;22.96;98.22;97790.16;1670162;85;28074;-86
2022/07/26 08:01:00;;;;;;;7.70;6.35;;;;;;;22.90;98.78;97775.27;1681206;83;28116;-85
2022/07/26 08:03:27;;;;;;;9.03;6.83;;;;;;;22.83;99.22;97771.75;1678456;83;28137;-89
2022/07/26 08:05:53;;;;;;;9.18;6.90;;;;;;;22.88;100.00;97771.14;1676997;85;28097;-89
2022/07/26 08:08:22;;;;;;;8.48;6.62;;;;;;;22.99;100.00;97776.41;1676306;85;28145;-90
2022/07/26 08:10:49;;;;;;;8.75;6.25;;;;;;;23.14;100.00;97776.54;1679570;83;28161;-87
2022/07/26 08:13:22;;;;;;;9.90;7.17;;;;;;;23.19;100.00;97797.28;1679418;83;28059;-87
2022/07/26 08:15:55;;;;;;;7.47;6.10;;;;;;;23.26;100.00;97813.64;1680082;85;28074;-90
2022/07/26 08:18:29;;;;;;;9.53;7.10;;;;;;;23.29;100.00;97815.09;1674648;85;28094;-87
2022/07/26 08:20:58;;;;;;;7.40;6.62;;;;;;;23.34;100.00;97821.98;1676665;85;28011;-90
2022/07/26 08:23:27;;;;;;;8.98;6.35;;;;;;;23.37;100.00;97825.57;1676696;85;28177;-85
2022/07/26 08:25:53;;;;;;;10.82;6.47;;;;;;;23.41;100.00;97836.66;1680051;85;28128;-84
2022/07/26 08:28:21;;;;;;;10.82;7.15;;;;;;;23.42;100.00;97838.31;1679879;83;28082;-84
2022/07/26 08:30:49;;;;;;;8.38;6.42;;;;;;;23.41;100.00;97840.16;1687134;83;28098;-84
2022/07/26 08:33:15;;;;;;;6.95;5.58;;;;;;;23.31;100.00;97845.89;1686870;83;28030;-86
2022/07/26 08:35:43;;;;;;;7.72;5.97;;;;;;;23.16;100.00;97852.43;1674115;85;28013;-84
2022/07/26 08:38:09;;;;;;;6.97;5.72;;;;;;;23.07;100.00;97850.97;1677496;85;28116;-85
2022/07/26 08:40:36;;;;;;;7.70;6.53;;;;;;;23.01;100.00;97846.43;1678216;84;28004;-86
2022/07/26 08:43:03;;;;;;;8.33;6.25;;;;;;;22.95;100.00;97852.05;1677304;85;28098;-86
2022/07/26 08:45:35;;;;;;;9.88;5.90;;;;;;;22.90;100.00;97851.32;1681043;83;28066;-89
2022/07/26 08:48:03;;;;;;;7.30;5.42;;;;;;;22.86;100.00;97850.56;1676528;84;28037;-84
2022/07/26 08:50:32;;;;;;;6.40;5.22;;;;;;;22.80;100.00;97851.37;1674750;83;28123;-88
2022/07/26 08:53:05;;;;;;;9.03;5.47;;;;;;;22.74;100.00;97848.17;1681976;83;28023;-87
2022/07/26 08:55:31;;;;;;;6.85;5.40;;;;;;;22.71;100.00;97846.70;1685748;84;28149;-85
2022/07/26 08:57:58;;;;;;;5.92;4.83;;;;;;;22.70;100.00;97843.69;1684142;83;28193;-85
2022/07/26 09:00:29;;;;;;;6.67;5.10;;;;;;;22.78;100.00;97846.23;1689550;83;28147;-90
2022/07/26 09:02:57;;;;;;;5.72;4.90;;;;;;;22.79;100.00;97846.55;1687184;84;28109;-89
2022/07/26 09:05:30;;;;;;;5.45;4.95;;;;;;;22.87;100.00;97855.70;1681289;84;28495;-90
2022/07/26 09:07:57;;;;;;;8.93;4.28;;;;;;;22.94;100.00;97858.41;1681578;84;28134;-86
2022/07/26 09:10:24;;;;;;;7.35;4.42;;;;;;;22.93;100.00;97857.58;1697645;82;28168;-90
2022/07/26 09:12:57;;;;;;;5.87;4.15;;;;;;;22.91;100.00;97860.16;1690287;84;28107;-89
2022/07/26 09:15:25;;;;;;;5.20;4.22;;;;;;;22.88;100.00;97868.54;1685041;83;28138;-90
2022/07/26 09:17:56;;;;;;;7.60;3.70;;;;;;;22.90;100.00;97879.85;1686213;84;28082;-87
2022/07/26 09:20:25;;;;;;;6.35;3.35;;;;;;;22.94;100.00;97886.43;1685378;84;28173;-86
2022/07/26 09:23:06;;;;;;;5.22;3.25;;;;;;;22.96;100.00;97892.91;1682051;83;28050;-86
2022/07/26 09:25:38;;;;;;;3.37;2.92;;;;;;;22.83;100.00;97898.49;1690903;83;28095;-87
2022/07/26 09:28:24;;;;;;;4.70;3.30;;;;;;;22.68;100.00;97894.27;1695195;84;28106;-86
2022/07/26 09:30:53;;;;;;;4.37;3.37;;;;;;;22.58;100.00;97905.30;1690053;83;28103;-86
2022/07/26 09:33:19;;;;;;;3.92;3.02;;;;;;;22.54;100.00;97903.52;1690256;82;28087;-86
2022/07/26 09:36:04;;;;;;;4.03;2.92;;;;;;;22.49;100.00;97905.13;1687046;83;28020;-86
2022/07/26 09:38:46;;;;;;;3.17;2.60;;;;;;;22.44;100.00;97906.22;1689617;82;28181;-84
2022/07/26 09:41:20;;;;;;;4.42;2.90;;;;;;;22.39;100.00;97905.98;1692392;84;28149;-89
2022/07/26 09:43:46;;;;;;;6.10;3.20;;;;;;;22.37;100.00;97906.17;1693733;83;28156;-86
2022/07/26 09:46:13;;;;;;;3.33;2.70;;;;;;;22.36;100.00;97901.88;1682387;83;28073;-86
2022/07/26 09:48:39;;;;;;;3.58;2.40;;;;;;;22.31;100.00;97902.14;1687118;83;28122;-86
2022/07/26 09:51:06;;;;;;;5.47;2.95;;;;;;;22.41;100.00;97907.95;1682757;84;28109;-84
2022/07/26 09:53:51;;;;;;;3.90;2.67;;;;;;;22.41;100.00;97909.29;1684713;84;28036;-84
2022/07/26 09:56:14;;;;;;;3.77;2.80;;;;;;;22.46;100.00;97917.53;1681377;84;28014;-89
2022/07/26 09:58:40;;;;;;;3.85;2.87;;;;;;;22.51;100.00;97911.92;1681686;84;28012;-86
2022/07/26 10:01:07;;;;;;;3.08;2.60;;;;;;;22.54;100.00;97922.19;1659249;84;28115;-86
2022/07/26 10:03:39;;;;;;;6.28;2.90;;;;;;;22.52;100.00;97921.58;1695800;83;28015;-86
2022/07/26 10:06:05;;;;;;;3.20;2.60;;;;;;;22.56;100.00;97923.84;1659316;85;28083;-86
2022/07/26 10:08:31;;;;;;;5.15;2.90;;;;;;;22.51;100.00;97926.59;1694934;83;28110;-87
2022/07/26 10:11:08;;;;;;;4.42;2.60;;;;;;;22.41;100.00;97917.29;1695808;82;28180;-87
2022/07/26 10:13:34;;;;;;;3.67;2.40;;;;;;;22.40;100.00;97916.46;1654371;84;28005;-87
2022/07/26 10:16:00;;;;;;;3.17;2.80;;;;;;;22.34;100.00;97921.23;1664644;84;28147;-87
2022/07/26 10:18:39;;;;;;;3.85;2.22;;;;;;;22.35;100.00;97926.89;1691804;83;28110;-87
2022/07/26 10:21:22;;;;;;;6.62;2.70;;;;;;;22.30;100.00;97931.16;1691571;84;28125;-90
2022/07/26 10:23:56;;;;;;;5.17;2.30;;;;;;;22.21;100.00;97934.95;1691324;84;28084;-86
2022/07/26 10:26:36;;;;;;;4.35;2.75;;;;;;;22.12;100.00;97932.95;1690723;83;28083;-87
2022/07/26 10:29:26;;;;;;;4.45;3.58;;;;;;;22.06;100.00;97932.38;1693966;83;28101;-90
2022/07/26 10:32:02;;;;;;;5.33;2.40;;;;;;;22.07;100.00;97937.52;1687532;84;28034;-87
2022/07/26 10:34:33;;;;;;;5.42;2.85;;;;;;;22.02;100.00;97939.94;1685968;82;28168;-85
2022/07/26 10:37:07;;;;;;;3.67;2.25;;;;;;;21.96;100.00;97938.55;1671340;84;28108;-86
2022/07/26 10:39:36;;;;;;;3.55;2.42;;;;;;;21.93;100.00;97938.91;1688181;84;28066;-89
2022/07/26 10:42:05;;;;;;;3.50;2.62;;;;;;;21.81;100.00;97947.91;1678390;84;28112;-87
2022/07/26 10:44:40;;;;;;;3.90;2.30;;;;;;;21.70;100.00;97953.23;1693218;84;28074;-90
2022/07/26 10:47:10;;;;;;;3.58;2.40;;;;;;;21.70;100.00;97955.07;1685661;84;28143;-90
2022/07/26 10:49:49;;;;;;;3.65;2.12;;;;;;;21.69;100.00;97955.58;1688455;84;28123;-90
2022/07/26 10:52:19;;;;;;;3.50;2.55;;;;;;;21.74;100.00;97956.33;1688740;84;28202;-86
2022/07/26 10:55:03;;;;;;;3.25;2.37;;;;;;;21.73;100.00;97957.34;1670056;84;28088;-86
2022/07/26 10:57:42;;;;;;;4.58;2.42;;;;;;;21.70;100.00;97961.73;1665909;85;28115;-86
2022/07/26 11:00:18;;;;;;;2.80;2.40;;;;;;;21.67;100.00;97961.58;1660044;84;28085;-86
2022/07/26 11:02:47;;;;;;;3.55;2.60;;;;;;;21.69;100.00;97968.06;1659728;84;28082;-87
2022/07/26 11:05:38;;;;;;;2.95;2.47;;;;;;;21.62;100.00;97970.65;1652404;84;27999;-86
2022/07/26 11:08:07;;;;;;;5.53;2.40;;;;;;;21.57;100.00;97969.56;1665019;83;28084;-86
2022/07/26 11:10:42;;;;;;;4.47;3.00;;;;;;;21.55;100.00;97962.25;1659594;84;28588;-90
2022/07/26 11:13:17;;;;;;;3.90;2.80;;;;;;;21.47;100.00;97975.19;1662591;85;28091;-88
2022/07/26 11:15:50;;;;;;;3.22;2.70;;;;;;;21.45;100.00;97973.71;1665781;85;28056;-88
2022/07/26 11:18:27;;;;;;;4.25;2.70;;;;;;;21.45;100.00;97975.05;1657815;85;28015;-89
2022/07/26 11:21:13;;;;;;;5.50;2.72;;;;;;;21.46;100.00;97974.04;1661151;85;28174;-87
2022/07/26 11:23:45;;;;;;;6.60;3.00;;;;;;;21.53;100.00;97972.28;1658855;84;28114;-88
2022/07/26 11:26:17;;;;;;;4.75;2.72;;;;;;;21.53;100.00;97974.95;1660000;86;28106;-87
2022/07/26 11:28:55;;;;;;;3.85;2.77;;;;;;;21.49;100.00;97973.15;1660549;84;28079;-90
2022/07/26 11:31:28;;;;;;;3.67;2.70;;;;;;;21.53;100.00;97977.11;1659722;84;28097;-90
2022/07/26 11:33:55;;;;;;;5.37;2.80;;;;;;;21.52;100.00;97974.13;1660454;85;28094;-91
2022/07/26 11:36:39;;;;;;;5.53;2.55;;;;;;;21.45;100.00;97977.20;1660077;84;28093;-88
2022/07/26 11:39:09;;;;;;;5.85;2.60;;;;;;;21.51;100.00;97983.12;1659363;85;28110;-88